Time;durP1;ratioP1;P1;durP2;ratioP2;P2;SDS_P1;SDS_P2;PMS_P1;PMS_P2;Temp;Humidity;BMP_temperature;BMP_pressure;BME280_temperature;BME280_humidity;BME280_pressure;Samples;Min_cycle;Max_cycle;Signal;HPM_P1;HPM_P2
2023/03/09 00:01:22;;;;;;;24.35;15.63;;;;;;;;;;4995202;28;20042;-57
2023/03/09 00:03:50;;;;;;;22.50;14.32;;;;;;;;;;4995420;28;20042;-59
2023/03/09 00:06:17;;;;;;;25.38;16.20;;;;;;;;;;4995240;28;20396;-58
2023/03/09 00:08:46;;;;;;;28.10;15.00;;;;;;;;;;4995299;28;20050;-59
2023/03/09 00:11:14;;;;;;;28.90;15.00;;;;;;;;;;4995540;28;20046;-59
2023/03/09 00:13:42;;;;;;;28.80;16.13;;;;;;;;;;4995171;28;20495;-58
2023/03/09 00:16:13;;;;;;;30.27;16.33;;;;;;;;;;4995163;28;20496;-58
2023/03/09 00:18:41;;;;;;;30.58;17.02;;;;;;;;;;4994950;28;20555;-58
2023/03/09 00:21:29;;;;;;;27.42;16.67;;;;;;;;;;4995163;28;20046;-59
2023/03/09 00:23:56;;;;;;;28.70;16.90;;;;;;;;;;4995019;28;20579;-58
2023/03/09 00:26:23;;;;;;;26.90;16.65;;;;;;;;;;4995099;28;20046;-59
2023/03/09 00:28:52;;;;;;;28.77;16.40;;;;;;;;;;4995215;28;20058;-58
2023/03/09 00:31:19;;;;;;;25.75;15.52;;;;;;;;;;4977520;28;20092;-59
2023/03/09 00:33:48;;;;;;;27.77;15.93;;;;;;;;;;4994726;28;20049;-59
2023/03/09 00:36:16;;;;;;;27.70;16.67;;;;;;;;;;4995076;28;20093;-58
2023/03/09 00:38:44;;;;;;;30.63;16.98;;;;;;;;;;4977330;28;20058;-59
2023/03/09 00:41:11;;;;;;;30.05;15.48;;;;;;;;;;4994700;28;20042;-58
2023/03/09 00:43:39;;;;;;;27.40;15.65;;;;;;;;;;4994686;28;20053;-59
2023/03/09 00:46:06;;;;;;;30.00;16.27;;;;;;;;;;4977175;28;20484;-59
2023/03/09 00:48:36;;;;;;;28.05;16.13;;;;;;;;;;4977225;28;20046;-59
2023/03/09 00:51:04;;;;;;;25.58;15.65;;;;;;;;;;4977118;28;20109;-58
2023/03/09 00:53:31;;;;;;;29.23;15.63;;;;;;;;;;4976978;28;20049;-59
2023/03/09 00:56:06;;;;;;;26.10;16.35;;;;;;;;;;4994487;28;20042;-58
2023/03/09 00:58:34;;;;;;;29.98;15.35;;;;;;;;;;4977079;28;20050;-58
2023/03/09 01:01:01;;;;;;;29.92;15.73;;;;;;;;;;4976926;28;20047;-58
2023/03/09 01:03:28;;;;;;;25.55;15.18;;;;;;;;;;4976722;28;20312;-58
2023/03/09 01:05:59;;;;;;;28.58;14.75;;;;;;;;;;4976138;28;20141;-58
2023/03/09 01:08:26;;;;;;;22.88;14.43;;;;;;;;;;4976618;28;20069;-58
2023/03/09 01:10:54;;;;;;;21.60;13.50;;;;;;;;;;4976620;28;20038;-58
2023/03/09 01:13:21;;;;;;;19.88;12.55;;;;;;;;;;4993968;28;20404;-58
2023/03/09 01:15:49;;;;;;;17.55;11.35;;;;;;;;;;4993878;28;20104;-59
2023/03/09 01:18:16;;;;;;;16.38;10.77;;;;;;;;;;4976630;28;20046;-59
2023/03/09 01:20:44;;;;;;;18.50;11.68;;;;;;;;;;4976217;28;20109;-59
2023/03/09 01:23:11;;;;;;;22.50;11.98;;;;;;;;;;4993944;28;20390;-59
2023/03/09 01:25:39;;;;;;;18.20;11.45;;;;;;;;;;4993950;28;20074;-58
2023/03/09 01:28:06;;;;;;;19.95;11.98;;;;;;;;;;4976345;28;20050;-57
2023/03/09 01:30:34;;;;;;;19.80;12.15;;;;;;;;;;4976267;28;20054;-58
2023/03/09 01:33:01;;;;;;;19.52;12.60;;;;;;;;;;4976372;28;20507;-58
2023/03/09 01:35:29;;;;;;;26.20;12.30;;;;;;;;;;4993723;28;20042;-57
2023/03/09 01:37:59;;;;;;;23.23;11.38;;;;;;;;;;4976268;28;20069;-58
2023/03/09 01:40:28;;;;;;;17.30;10.07;;;;;;;;;;4976308;28;20144;-58
2023/03/09 01:42:56;;;;;;;18.95;10.32;;;;;;;;;;4976161;28;20042;-58
2023/03/09 01:45:30;;;;;;;17.15;10.40;;;;;;;;;;4993571;28;20077;-58
2023/03/09 01:47:58;;;;;;;16.67;10.60;;;;;;;;;;4993663;28;20073;-58
2023/03/09 01:50:29;;;;;;;16.45;10.77;;;;;;;;;;4976044;28;20042;-59
2023/03/09 01:52:58;;;;;;;16.02;9.10;;;;;;;;;;4993352;28;20093;-59
2023/03/09 01:55:30;;;;;;;16.02;9.32;;;;;;;;;;4976069;28;20046;-59
2023/03/09 01:58:02;;;;;;;15.52;8.40;;;;;;;;;;4976056;28;20077;-58
2023/03/09 02:00:30;;;;;;;15.68;8.38;;;;;;;;;;4975988;28;20054;-58
2023/03/09 02:03:12;;;;;;;14.48;8.38;;;;;;;;;;4975889;28;20049;-59
2023/03/09 02:05:44;;;;;;;14.98;8.57;;;;;;;;;;4975804;28;20049;-59
2023/03/09 02:08:15;;;;;;;17.73;8.43;;;;;;;;;;4975929;28;20058;-59
2023/03/09 02:10:47;;;;;;;13.82;7.75;;;;;;;;;;4975870;28;20045;-58
2023/03/09 02:13:16;;;;;;;14.25;8.02;;;;;;;;;;4975697;28;20397;-58
2023/03/09 02:15:43;;;;;;;13.38;7.97;;;;;;;;;;4975848;28;20122;-58
2023/03/09 02:18:11;;;;;;;11.88;7.70;;;;;;;;;;4975515;28;20137;-59
2023/03/09 02:20:57;;;;;;;14.02;7.82;;;;;;;;;;4975582;28;20055;-58
2023/03/09 02:23:26;;;;;;;13.35;7.43;;;;;;;;;;4975855;28;20055;-59
2023/03/09 02:26:02;;;;;;;11.93;7.63;;;;;;;;;;4975664;28;20078;-58
2023/03/09 02:28:30;;;;;;;14.43;7.82;;;;;;;;;;4993174;28;20078;-59
2023/03/09 02:30:59;;;;;;;11.48;7.60;;;;;;;;;;4975653;28;20046;-59
2023/03/09 02:33:30;;;;;;;13.85;7.90;;;;;;;;;;4975467;28;20053;-58
2023/03/09 02:36:00;;;;;;;10.90;7.40;;;;;;;;;;4975925;28;20451;-58
2023/03/09 02:38:32;;;;;;;10.82;6.80;;;;;;;;;;4975650;28;20050;-58
2023/03/09 02:41:01;;;;;;;9.68;6.75;;;;;;;;;;4975593;28;20038;-58
2023/03/09 02:43:33;;;;;;;8.75;6.10;;;;;;;;;;4975491;28;20571;-59
2023/03/09 02:46:00;;;;;;;12.10;6.80;;;;;;;;;;4975544;28;20046;-58
2023/03/09 02:48:29;;;;;;;12.10;7.20;;;;;;;;;;4975498;28;20038;-59
2023/03/09 02:50:57;;;;;;;12.95;7.55;;;;;;;;;;4975508;28;20137;-59
2023/03/09 02:53:24;;;;;;;14.10;7.32;;;;;;;;;;4975287;28;20039;-58
2023/03/09 02:55:52;;;;;;;12.45;7.13;;;;;;;;;;4975335;28;20113;-58
2023/03/09 02:58:19;;;;;;;14.38;7.63;;;;;;;;;;4975789;28;20046;-58
2023/03/09 03:00:48;;;;;;;14.95;7.57;;;;;;;;;;4975354;28;20046;-58
2023/03/09 03:03:19;;;;;;;11.43;7.05;;;;;;;;;;4992781;28;20037;-58
2023/03/09 03:05:49;;;;;;;11.05;6.90;;;;;;;;;;4975339;28;20150;-58
2023/03/09 03:08:17;;;;;;;9.68;6.38;;;;;;;;;;4975276;28;20129;-58
2023/03/09 03:11:02;;;;;;;14.93;7.28;;;;;;;;;;4992738;28;20049;-58
2023/03/09 03:13:30;;;;;;;14.10;8.55;;;;;;;;;;4975240;28;20046;-58
2023/03/09 03:16:01;;;;;;;15.02;8.90;;;;;;;;;;4992636;28;20042;-58
2023/03/09 03:18:28;;;;;;;14.82;8.40;;;;;;;;;;4975174;28;20058;-59
2023/03/09 03:20:56;;;;;;;18.83;9.40;;;;;;;;;;4975202;28;20057;-58
2023/03/09 03:23:24;;;;;;;15.75;8.82;;;;;;;;;;4975188;28;20058;-58
2023/03/09 03:25:53;;;;;;;23.45;8.80;;;;;;;;;;4975186;28;20116;-59
2023/03/09 03:28:22;;;;;;;18.42;9.13;;;;;;;;;;4975045;28;20042;-60
2023/03/09 03:30:54;;;;;;;14.05;7.88;;;;;;;;;;4977762;28;20101;-58
2023/03/09 03:33:24;;;;;;;15.18;7.97;;;;;;;;;;4978360;28;20445;-58
2023/03/09 03:35:54;;;;;;;15.63;8.35;;;;;;;;;;4978429;28;20467;-57
2023/03/09 03:38:22;;;;;;;12.20;7.72;;;;;;;;;;4978534;28;20046;-57
2023/03/09 03:40:51;;;;;;;15.68;7.95;;;;;;;;;;4978332;28;20618;-57
2023/03/09 03:43:19;;;;;;;14.10;7.88;;;;;;;;;;4978279;28;20046;-57
2023/03/09 03:45:49;;;;;;;14.73;8.35;;;;;;;;;;4978388;28;20319;-58
2023/03/09 03:48:17;;;;;;;12.52;7.65;;;;;;;;;;4978243;28;20093;-59
2023/03/09 03:50:44;;;;;;;15.98;8.68;;;;;;;;;;4978072;28;20042;-58
2023/03/09 03:53:12;;;;;;;13.40;6.95;;;;;;;;;;4978083;28;20050;-57
2023/03/09 03:55:39;;;;;;;11.93;7.30;;;;;;;;;;4978167;28;20066;-57
2023/03/09 03:58:07;;;;;;;10.95;6.70;;;;;;;;;;4978166;28;20495;-57
2023/03/09 04:00:36;;;;;;;10.30;6.57;;;;;;;;;;4978120;28;20598;-58
2023/03/09 04:03:09;;;;;;;13.23;6.82;;;;;;;;;;4993806;28;20045;-57
2023/03/09 04:05:40;;;;;;;10.88;7.18;;;;;;;;;;4997427;28;20062;-58
2023/03/09 04:08:09;;;;;;;13.85;6.93;;;;;;;;;;4997345;28;20041;-57
2023/03/09 04:10:40;;;;;;;11.60;6.90;;;;;;;;;;4997241;28;20041;-58
2023/03/09 04:13:10;;;;;;;11.02;6.60;;;;;;;;;;4997142;28;20133;-57
2023/03/09 04:15:39;;;;;;;12.68;7.10;;;;;;;;;;4997162;28;20420;-59
2023/03/09 04:18:07;;;;;;;18.13;10.70;;;;;;;;;;4996995;28;20037;-59
2023/03/09 04:20:38;;;;;;;24.90;11.27;;;;;;;;;;4996880;28;20065;-58
2023/03/09 04:23:06;;;;;;;23.15;11.38;;;;;;;;;;4997142;28;20443;-58
2023/03/09 04:25:37;;;;;;;30.92;14.77;;;;;;;;;;5011601;28;20038;-58
2023/03/09 04:28:05;;;;;;;25.42;14.32;;;;;;;;;;4958193;28;20047;-57
2023/03/09 04:30:39;;;;;;;24.50;13.30;;;;;;;;;;4974179;28;20043;-58
2023/03/09 04:33:10;;;;;;;18.67;11.00;;;;;;;;;;4958771;28;20057;-58
2023/03/09 04:35:38;;;;;;;22.85;10.98;;;;;;;;;;4972446;28;20046;-58
2023/03/09 04:38:12;;;;;;;19.67;9.07;;;;;;;;;;4973256;28;20041;-58
2023/03/09 04:40:42;;;;;;;12.75;7.50;;;;;;;;;;4956863;28;20058;-58
2023/03/09 04:43:10;;;;;;;12.57;7.28;;;;;;;;;;4973474;28;20564;-58
2023/03/09 04:45:38;;;;;;;21.75;8.48;;;;;;;;;;4973297;28;20050;-58
2023/03/09 04:48:06;;;;;;;13.82;7.93;;;;;;;;;;4973308;28;20042;-58
2023/03/09 04:50:36;;;;;;;13.68;6.72;;;;;;;;;;4955950;28;20043;-58
2023/03/09 04:53:05;;;;;;;11.98;7.40;;;;;;;;;;4972813;28;20070;-58
2023/03/09 04:55:36;;;;;;;22.65;7.43;;;;;;;;;;4957012;28;20051;-58
2023/03/09 04:58:07;;;;;;;18.25;7.47;;;;;;;;;;4957017;28;20074;-57
2023/03/09 05:00:35;;;;;;;15.30;7.22;;;;;;;;;;4957070;28;20046;-57
2023/03/09 05:03:04;;;;;;;16.02;6.57;;;;;;;;;;4973227;28;20557;-58
2023/03/09 05:05:33;;;;;;;14.43;6.50;;;;;;;;;;4974904;28;20448;-58
2023/03/09 05:08:02;;;;;;;13.07;7.30;;;;;;;;;;4973585;28;20437;-58
2023/03/09 05:10:30;;;;;;;14.45;7.72;;;;;;;;;;4973429;28;20486;-58
2023/03/09 05:12:58;;;;;;;15.60;7.68;;;;;;;;;;4973393;28;20053;-58
2023/03/09 05:15:28;;;;;;;16.90;7.85;;;;;;;;;;4957084;28;20505;-58
2023/03/09 05:17:57;;;;;;;20.67;8.18;;;;;;;;;;4957648;28;20049;-58
2023/03/09 05:20:27;;;;;;;16.00;7.47;;;;;;;;;;4956978;28;20400;-58
2023/03/09 05:23:00;;;;;;;18.88;8.82;;;;;;;;;;4957230;28;20129;-58
2023/03/09 05:25:29;;;;;;;18.88;10.32;;;;;;;;;;4957165;28;20055;-58
2023/03/09 05:27:58;;;;;;;19.80;8.63;;;;;;;;;;4973239;28;20433;-58
2023/03/09 05:30:30;;;;;;;15.25;7.78;;;;;;;;;;4957090;28;20057;-57
2023/03/09 05:33:00;;;;;;;12.10;7.63;;;;;;;;;;4957217;28;20109;-58
2023/03/09 05:35:30;;;;;;;17.23;8.48;;;;;;;;;;4973094;28;20464;-58
2023/03/09 05:37:57;;;;;;;12.48;7.40;;;;;;;;;;4973095;28;20038;-58
2023/03/09 05:40:26;;;;;;;17.58;7.82;;;;;;;;;;4972886;28;20075;-58
2023/03/09 05:42:58;;;;;;;14.48;7.20;;;;;;;;;;4972824;28;20050;-58
2023/03/09 05:45:25;;;;;;;19.27;7.65;;;;;;;;;;4972984;28;20070;-58
2023/03/09 05:47:55;;;;;;;14.40;7.07;;;;;;;;;;4972890;28;20500;-58
2023/03/09 05:50:22;;;;;;;8.80;5.75;;;;;;;;;;4972676;28;20173;-57
2023/03/09 05:52:49;;;;;;;18.08;6.95;;;;;;;;;;4972392;28;20042;-57
2023/03/09 05:55:20;;;;;;;15.02;9.40;;;;;;;;;;4956560;28;20413;-58
2023/03/09 05:57:48;;;;;;;22.23;10.25;;;;;;;;;;4972822;28;20512;-58
2023/03/09 06:00:17;;;;;;;26.67;14.73;;;;;;;;;;4956671;28;20496;-58
2023/03/09 06:02:53;;;;;;;19.50;11.82;;;;;;;;;;4956542;28;20437;-58
2023/03/09 06:05:28;;;;;;;24.20;11.25;;;;;;;;;;4956032;28;20058;-58
2023/03/09 06:07:55;;;;;;;19.40;9.55;;;;;;;;;;4973752;28;20057;-58
2023/03/09 06:10:23;;;;;;;16.42;10.32;;;;;;;;;;4972617;28;20556;-58
2023/03/09 06:12:51;;;;;;;15.73;8.85;;;;;;;;;;4972676;28;20137;-58
2023/03/09 06:15:20;;;;;;;11.15;7.95;;;;;;;;;;4972385;28;20043;-58
2023/03/09 06:17:48;;;;;;;15.93;9.02;;;;;;;;;;4972429;28;20437;-59
2023/03/09 06:20:20;;;;;;;17.80;8.20;;;;;;;;;;4956361;28;20058;-58
2023/03/09 06:22:50;;;;;;;14.35;8.40;;;;;;;;;;4956527;28;20038;-58
2023/03/09 06:25:18;;;;;;;16.77;7.32;;;;;;;;;;4956609;28;20057;-57
2023/03/09 06:27:46;;;;;;;15.75;7.00;;;;;;;;;;4972471;28;20081;-57
2023/03/09 06:30:17;;;;;;;13.85;7.40;;;;;;;;;;4956330;28;20070;-57
2023/03/09 06:32:47;;;;;;;12.95;7.95;;;;;;;;;;4972519;28;20427;-58
2023/03/09 06:35:15;;;;;;;13.70;6.63;;;;;;;;;;4956210;28;20035;-57
2023/03/09 06:37:43;;;;;;;14.65;6.65;;;;;;;;;;4956262;28;20047;-57
2023/03/09 06:40:12;;;;;;;17.08;6.00;;;;;;;;;;4956224;28;20094;-57
2023/03/09 06:42:40;;;;;;;21.55;10.35;;;;;;;;;;4956124;28;20500;-58
2023/03/09 06:45:09;;;;;;;25.38;12.23;;;;;;;;;;4972325;28;20039;-57
2023/03/09 06:47:40;;;;;;;25.58;11.40;;;;;;;;;;4956103;28;20053;-57
2023/03/09 06:50:09;;;;;;;21.27;9.70;;;;;;;;;;4956129;28;20415;-57
2023/03/09 06:52:41;;;;;;;18.83;9.88;;;;;;;;;;4940926;28;20047;-57
2023/03/09 06:55:09;;;;;;;23.35;9.35;;;;;;;;;;4972154;28;20592;-57
2023/03/09 06:57:48;;;;;;;14.10;9.45;;;;;;;;;;4956087;28;20047;-57
2023/03/09 07:00:16;;;;;;;16.80;8.82;;;;;;;;;;4956073;28;20515;-57
2023/03/09 07:02:47;;;;;;;19.30;9.70;;;;;;;;;;4956135;28;20035;-57
2023/03/09 07:05:15;;;;;;;23.27;12.05;;;;;;;;;;4957859;28;20047;-57
2023/03/09 07:07:44;;;;;;;27.40;11.93;;;;;;;;;;4959580;28;20397;-57
2023/03/09 07:10:12;;;;;;;28.75;11.75;;;;;;;;;;4977070;28;20039;-57
2023/03/09 07:12:39;;;;;;;24.90;10.27;;;;;;;;;;4977051;28;20043;-59
2023/03/09 07:15:07;;;;;;;22.55;9.98;;;;;;;;;;4976786;28;20514;-58
2023/03/09 07:17:36;;;;;;;16.60;8.68;;;;;;;;;;4976998;28;20102;-59
2023/03/09 07:20:03;;;;;;;16.55;9.35;;;;;;;;;;4976715;28;20049;-60
2023/03/09 07:22:31;;;;;;;24.50;10.65;;;;;;;;;;4977066;28;20054;-58
2023/03/09 07:24:58;;;;;;;22.25;11.10;;;;;;;;;;4976946;28;20117;-58
2023/03/09 07:27:26;;;;;;;19.00;10.55;;;;;;;;;;4976867;28;20046;-58
2023/03/09 07:29:53;;;;;;;19.33;9.32;;;;;;;;;;4976879;28;20098;-57
2023/03/09 07:32:21;;;;;;;15.02;7.72;;;;;;;;;;4976694;28;20047;-58
2023/03/09 07:34:48;;;;;;;19.52;9.07;;;;;;;;;;4976616;28;20555;-59
2023/03/09 07:37:16;;;;;;;16.67;8.38;;;;;;;;;;4976650;28;20074;-58
2023/03/09 07:39:43;;;;;;;12.10;7.88;;;;;;;;;;4976588;28;20089;-60
2023/03/09 07:42:10;;;;;;;25.15;15.10;;;;;;;;;;4976612;28;20047;-59
2023/03/09 07:44:50;;;;;;;17.15;9.60;;;;;;;;;;4976641;28;20046;-59
2023/03/09 07:47:18;;;;;;;12.88;8.18;;;;;;;;;;4959179;28;20039;-59
2023/03/09 07:49:45;;;;;;;13.82;7.03;;;;;;;;;;4976435;28;20043;-60
2023/03/09 07:52:13;;;;;;;16.38;7.05;;;;;;;;;;4976199;28;20058;-59
2023/03/09 07:54:40;;;;;;;11.38;6.72;;;;;;;;;;4976130;28;20642;-59
2023/03/09 07:57:08;;;;;;;16.55;6.47;;;;;;;;;;4976157;28;20078;-59
2023/03/09 07:59:35;;;;;;;12.38;6.78;;;;;;;;;;4976146;28;20089;-59
2023/03/09 08:02:06;;;;;;;9.77;5.88;;;;;;;;;;4976119;28;20050;-59
2023/03/09 08:04:34;;;;;;;9.13;5.38;;;;;;;;;;4976106;28;20409;-59
2023/03/09 08:07:01;;;;;;;9.50;5.38;;;;;;;;;;4976063;28;20043;-59
2023/03/09 08:09:29;;;;;;;9.27;4.85;;;;;;;;;;4976012;28;20049;-59
2023/03/09 08:11:56;;;;;;;10.07;4.97;;;;;;;;;;4976352;28;20034;-59
2023/03/09 08:14:23;;;;;;;11.27;4.53;;;;;;;;;;4975907;28;20039;-58
2023/03/09 08:16:51;;;;;;;6.63;4.70;;;;;;;;;;4975478;28;20125;-59
2023/03/09 08:19:21;;;;;;;6.47;4.32;;;;;;;;;;4975509;28;20047;-59
2023/03/09 08:21:49;;;;;;;6.30;3.80;;;;;;;;;;4975685;28;20503;-59
2023/03/09 08:24:16;;;;;;;8.27;3.55;;;;;;;;;;4975747;28;20043;-57
2023/03/09 08:26:44;;;;;;;5.13;3.08;;;;;;;;;;4975744;28;20043;-58
2023/03/09 08:29:11;;;;;;;6.53;4.03;;;;;;;;;;4975442;28;20093;-58
2023/03/09 08:31:39;;;;;;;5.43;3.60;;;;;;;;;;4975555;28;20118;-58
2023/03/09 08:34:06;;;;;;;5.70;3.65;;;;;;;;;;4975541;28;20066;-58
2023/03/09 08:36:34;;;;;;;8.93;3.63;;;;;;;;;;4975317;28;20054;-58
2023/03/09 08:39:01;;;;;;;6.22;3.58;;;;;;;;;;4975588;28;20043;-58
2023/03/09 08:41:29;;;;;;;5.45;4.32;;;;;;;;;;4957918;28;20105;-58
2023/03/09 08:43:57;;;;;;;5.43;3.65;;;;;;;;;;4975488;28;20039;-58
2023/03/09 08:46:25;;;;;;;6.80;3.70;;;;;;;;;;4975191;28;20035;-58
2023/03/09 08:48:52;;;;;;;9.10;4.10;;;;;;;;;;4958153;28;20098;-58
2023/03/09 08:51:20;;;;;;;8.48;4.20;;;;;;;;;;4975403;28;20047;-58
2023/03/09 08:53:48;;;;;;;10.55;5.10;;;;;;;;;;4975166;28;20043;-58
2023/03/09 08:56:15;;;;;;;9.45;4.25;;;;;;;;;;4974971;28;20485;-58
2023/03/09 08:58:43;;;;;;;8.40;4.68;;;;;;;;;;4975108;28;20051;-58
2023/03/09 09:01:10;;;;;;;7.53;4.80;;;;;;;;;;4974892;28;20042;-58
2023/03/09 09:03:38;;;;;;;12.07;5.32;;;;;;;;;;4957484;28;20468;-58
2023/03/09 09:06:11;;;;;;;7.40;4.72;;;;;;;;;;4974852;28;20126;-58
2023/03/09 09:08:39;;;;;;;9.00;5.07;;;;;;;;;;4975028;28;20481;-59
2023/03/09 09:11:10;;;;;;;8.80;4.78;;;;;;;;;;4974915;28;20047;-59
2023/03/09 09:13:37;;;;;;;8.73;4.82;;;;;;;;;;4974743;28;20117;-59
2023/03/09 09:16:06;;;;;;;6.93;4.25;;;;;;;;;;4974725;28;20126;-58
2023/03/09 09:18:35;;;;;;;5.97;3.83;;;;;;;;;;4974478;28;20485;-58
2023/03/09 09:21:08;;;;;;;6.70;4.00;;;;;;;;;;4974698;28;20386;-57
2023/03/09 09:23:36;;;;;;;7.28;4.38;;;;;;;;;;4957485;28;20062;-58
2023/03/09 09:26:04;;;;;;;6.40;2.60;;;;;;;;;;4974524;28;20081;-60
2023/03/09 09:28:32;;;;;;;9.68;3.05;;;;;;;;;;4973842;28;20046;-58
2023/03/09 09:31:01;;;;;;;6.15;2.78;;;;;;;;;;4974501;28;20053;-58
2023/03/09 09:33:28;;;;;;;3.30;2.20;;;;;;;;;;4974579;28;20046;-58
2023/03/09 09:35:57;;;;;;;5.13;2.50;;;;;;;;;;4956841;28;20047;-58
2023/03/09 09:38:25;;;;;;;4.07;2.45;;;;;;;;;;4974385;28;20074;-57
2023/03/09 09:40:54;;;;;;;4.32;3.03;;;;;;;;;;4974576;28;20050;-57
2023/03/09 09:43:23;;;;;;;5.97;2.80;;;;;;;;;;4974274;28;20058;-57
2023/03/09 09:45:52;;;;;;;14.43;3.05;;;;;;;;;;4974074;28;20401;-57
2023/03/09 09:48:22;;;;;;;5.47;2.80;;;;;;;;;;4974267;28;20043;-57
2023/03/09 09:51:02;;;;;;;4.93;2.47;;;;;;;;;;4974200;28;20046;-57
2023/03/09 09:53:33;;;;;;;8.95;2.53;;;;;;;;;;4974162;28;20049;-57
2023/03/09 09:56:00;;;;;;;5.63;2.60;;;;;;;;;;4973982;28;20050;-59
2023/03/09 09:58:57;;;;;;;6.50;2.38;;;;;;;;;;4974155;28;20038;-58
2023/03/09 10:01:39;;;;;;;5.32;2.38;;;;;;;;;;4967105;28;20050;-57
2023/03/09 10:04:11;;;;;;;4.88;1.95;;;;;;;;;;4974041;28;20046;-57
2023/03/09 10:06:39;;;;;;;5.28;2.22;;;;;;;;;;4973963;28;20042;-57
2023/03/09 10:09:36;;;;;;;6.28;2.38;;;;;;;;;;4974031;28;20109;-57
2023/03/09 10:12:12;;;;;;;4.20;2.50;;;;;;;;;;4966897;28;20071;-58
2023/03/09 10:14:43;;;;;;;4.57;2.20;;;;;;;;;;4973872;28;20078;-57
2023/03/09 10:17:13;;;;;;;3.80;2.40;;;;;;;;;;4973862;28;20102;-58
2023/03/09 10:19:41;;;;;;;4.80;2.30;;;;;;;;;;4973609;28;20123;-58
2023/03/09 10:22:16;;;;;;;6.82;3.70;;;;;;;;;;4973662;28;20093;-59
2023/03/09 10:24:50;;;;;;;5.03;2.60;;;;;;;;;;4973739;28;20532;-58
2023/03/09 10:27:18;;;;;;;4.20;2.30;;;;;;;;;;4973580;28;20039;-61
2023/03/09 10:29:48;;;;;;;4.60;2.40;;;;;;;;;;4973506;28;20039;-60
2023/03/09 10:32:36;;;;;;;4.88;2.67;;;;;;;;;;4958120;28;20093;-59
2023/03/09 10:35:19;;;;;;;4.47;2.97;;;;;;;;;;4973550;28;20074;-59
2023/03/09 10:37:51;;;;;;;4.80;2.85;;;;;;;;;;4973619;28;20039;-59
2023/03/09 10:40:26;;;;;;;5.75;2.78;;;;;;;;;;4977336;28;20118;-59
2023/03/09 10:42:54;;;;;;;4.47;2.40;;;;;;;;;;4977596;28;20543;-57
2023/03/09 10:45:27;;;;;;;7.18;3.10;;;;;;;;;;4977540;28;20050;-59
2023/03/09 10:47:56;;;;;;;6.10;2.65;;;;;;;;;;4977545;28;20119;-59
2023/03/09 10:50:25;;;;;;;5.43;2.88;;;;;;;;;;4977299;28;20055;-58
2023/03/09 10:52:54;;;;;;;7.47;3.35;;;;;;;;;;4977356;28;20049;-59
2023/03/09 10:55:27;;;;;;;5.03;2.38;;;;;;;;;;4977296;28;20043;-59
2023/03/09 10:57:56;;;;;;;8.25;3.42;;;;;;;;;;4977372;28;20049;-59
2023/03/09 11:00:25;;;;;;;5.97;3.17;;;;;;;;;;4977341;28;20038;-58
2023/03/09 11:02:59;;;;;;;6.25;2.85;;;;;;;;;;4977265;28;20094;-58
2023/03/09 11:05:28;;;;;;;5.60;2.67;;;;;;;;;;4977314;28;20039;-58
2023/03/09 11:07:57;;;;;;;5.45;2.60;;;;;;;;;;4977188;28;20046;-59
2023/03/09 11:10:26;;;;;;;3.58;2.08;;;;;;;;;;4977102;28;20121;-58
2023/03/09 11:12:54;;;;;;;5.72;2.20;;;;;;;;;;4976988;28;20077;-58
2023/03/09 11:15:25;;;;;;;3.83;2.28;;;;;;;;;;4977273;28;20042;-59
2023/03/09 11:17:52;;;;;;;3.45;1.70;;;;;;;;;;4977167;28;20054;-59
2023/03/09 11:20:28;;;;;;;3.33;1.23;;;;;;;;;;4976912;28;20505;-59
2023/03/09 11:22:59;;;;;;;2.70;1.58;;;;;;;;;;4976900;28;20405;-59
2023/03/09 11:25:33;;;;;;;1.75;1.33;;;;;;;;;;4976788;28;20035;-59
2023/03/09 11:28:04;;;;;;;3.65;2.00;;;;;;;;;;4976805;28;20053;-59
2023/03/09 11:30:31;;;;;;;8.30;1.92;;;;;;;;;;4976549;28;20043;-59
2023/03/09 11:32:59;;;;;;;2.10;1.60;;;;;;;;;;4976684;28;20567;-59
2023/03/09 11:35:26;;;;;;;8.18;2.28;;;;;;;;;;4976541;28;20043;-59
2023/03/09 11:37:58;;;;;;;3.22;1.70;;;;;;;;;;4976680;28;20046;-59
2023/03/09 11:40:33;;;;;;;5.65;2.10;;;;;;;;;;4976619;28;20039;-59
2023/03/09 11:43:00;;;;;;;;;;;;;;;;;;4977026;28;20077;-59
2023/03/09 11:45:29;;;;;;;4.78;2.20;;;;;;;;;;4976499;28;19961;-59
2023/03/09 11:48:02;;;;;;;4.00;1.70;;;;;;;;;;4976461;28;20093;-59
2023/03/09 11:50:39;;;;;;;3.00;2.17;;;;;;;;;;4975561;28;20089;-59
2023/03/09 11:53:12;;;;;;;7.68;2.05;;;;;;;;;;4976348;28;20070;-59
2023/03/09 11:55:42;;;;;;;5.25;1.92;;;;;;;;;;4976155;28;20047;-59
2023/03/09 11:58:13;;;;;;;3.58;1.58;;;;;;;;;;4976239;28;20520;-59
2023/03/09 12:00:44;;;;;;;7.88;1.95;;;;;;;;;;4976004;28;20043;-59
2023/03/09 12:03:16;;;;;;;2.97;1.50;;;;;;;;;;4976116;28;20367;-59
2023/03/09 12:05:46;;;;;;;3.60;1.58;;;;;;;;;;4976071;28;20050;-58
2023/03/09 12:08:17;;;;;;;5.82;1.80;;;;;;;;;;4975968;28;20046;-59
2023/03/09 12:10:53;;;;;;;9.32;1.83;;;;;;;;;;4975882;28;20069;-59
2023/03/09 12:13:33;;;;;;;2.67;1.55;;;;;;;;;;4975881;28;20035;-59
2023/03/09 12:16:19;;;;;;;4.00;1.33;;;;;;;;;;4975987;28;20046;-59
2023/03/09 12:18:59;;;;;;;3.22;1.63;;;;;;;;;;4976081;28;20440;-59
2023/03/09 12:21:33;;;;;;;3.67;1.63;;;;;;;;;;4975918;28;20120;-59
2023/03/09 12:24:03;;;;;;;3.67;1.98;;;;;;;;;;4975831;28;20375;-59
2023/03/09 12:26:32;;;;;;;3.15;1.80;;;;;;;;;;4975202;28;20047;-58
2023/03/09 12:29:05;;;;;;;3.88;1.90;;;;;;;;;;4981658;28;20076;-59
2023/03/09 12:31:34;;;;;;;4.72;1.85;;;;;;;;;;4994990;28;20038;-59
2023/03/09 12:34:03;;;;;;;6.15;1.75;;;;;;;;;;4994453;28;20050;-59
2023/03/09 12:36:32;;;;;;;6.07;2.00;;;;;;;;;;4994084;28;20480;-59
2023/03/09 12:39:18;;;;;;;3.22;1.50;;;;;;;;;;4994305;28;20039;-66
2023/03/09 12:41:54;;;;;;;4.47;1.63;;;;;;;;;;4994375;28;20042;-66
2023/03/09 12:44:41;;;;;;;3.78;1.58;;;;;;;;;;4994379;28;20038;-66
2023/03/09 12:47:28;;;;;;;5.38;1.90;;;;;;;;;;4994031;28;20046;-67
2023/03/09 12:49:57;;;;;;;7.55;1.73;;;;;;;;;;4954643;28;20053;-66
2023/03/09 12:52:31;;;;;;;4.35;1.75;;;;;;;;;;4993816;28;20103;-65
2023/03/09 12:55:00;;;;;;;3.03;1.40;;;;;;;;;;4994114;28;20042;-65
2023/03/09 12:57:29;;;;;;;2.92;1.58;;;;;;;;;;4993804;28;20049;-65
2023/03/09 13:00:11;;;;;;;2.83;1.33;;;;;;;;;;4993253;28;20038;-65
2023/03/09 13:02:39;;;;;;;4.25;1.60;;;;;;;;;;4993018;28;20046;-65
2023/03/09 13:05:20;;;;;;;3.60;1.50;;;;;;;;;;4994313;28;20041;-65
2023/03/09 13:08:13;;;;;;;4.95;1.60;;;;;;;;;;4994286;28;20386;-65
2023/03/09 13:10:41;;;;;;;4.22;2.00;;;;;;;;;;4964997;28;20061;-65
2023/03/09 13:13:27;;;;;;;4.13;2.28;;;;;;;;;;4994133;28;20077;-65
2023/03/09 13:16:13;;;;;;;2.40;1.70;;;;;;;;;;4994155;28;20038;-65
2023/03/09 13:18:40;;;;;;;6.30;2.28;;;;;;;;;;4993745;28;20038;-65
2023/03/09 13:21:26;;;;;;;3.45;1.58;;;;;;;;;;4994007;28;20046;-66
2023/03/09 13:23:54;;;;;;;5.63;1.90;;;;;;;;;;4994002;28;20122;-65
2023/03/09 13:26:22;;;;;;;3.75;1.83;;;;;;;;;;4993890;28;20109;-65
2023/03/09 13:28:51;;;;;;;3.25;1.90;;;;;;;;;;4993964;28;20034;-65
2023/03/09 13:31:26;;;;;;;5.28;1.45;;;;;;;;;;4993839;28;20097;-65
2023/03/09 13:33:54;;;;;;;5.80;2.00;;;;;;;;;;4993711;28;20042;-65
2023/03/09 13:36:24;;;;;;;3.83;1.58;;;;;;;;;;4993756;28;20072;-65
2023/03/09 13:39:05;;;;;;;5.32;2.05;;;;;;;;;;4993742;28;20069;-65
2023/03/09 13:41:33;;;;;;;4.72;1.80;;;;;;;;;;4993849;28;20057;-65
2023/03/09 13:44:00;;;;;;;2.38;1.70;;;;;;;;;;4993658;28;20047;-65
2023/03/09 13:46:32;;;;;;;5.53;1.88;;;;;;;;;;4993899;28;20074;-65
2023/03/09 13:49:07;;;;;;;4.82;2.00;;;;;;;;;;4993556;28;20045;-65
2023/03/09 13:51:44;;;;;;;4.25;1.95;;;;;;;;;;4993583;28;20054;-65
2023/03/09 13:54:38;;;;;;;4.72;2.28;;;;;;;;;;4993528;28;20042;-65
2023/03/09 13:57:19;;;;;;;7.47;2.40;;;;;;;;;;4990954;28;20062;-65
2023/03/09 13:59:49;;;;;;;7.13;2.83;;;;;;;;;;4993508;28;20049;-65
2023/03/09 14:02:17;;;;;;;9.90;5.50;;;;;;;;;;4993477;28;20054;-65
2023/03/09 14:04:45;;;;;;;8.40;4.32;;;;;;;;;;4993464;28;20444;-65
2023/03/09 14:07:17;;;;;;;33.45;22.52;;;;;;;;;;4993743;28;20108;-65
2023/03/09 14:09:50;;;;;;;7.28;2.90;;;;;;;;;;4993440;28;20049;-65
2023/03/09 14:12:23;;;;;;;11.18;6.70;;;;;;;;;;4993171;28;20053;-65
2023/03/09 14:14:51;;;;;;;9.32;7.00;;;;;;;;;;4992913;28;20448;-65
2023/03/09 14:17:19;;;;;;;9.52;5.10;;;;;;;;;;4993288;28;20046;-65
2023/03/09 14:19:51;;;;;;;5.25;3.47;;;;;;;;;;4993210;28;20053;-65
2023/03/09 14:22:19;;;;;;;5.57;3.47;;;;;;;;;;4993207;28;20069;-65
2023/03/09 14:24:46;;;;;;;7.10;3.35;;;;;;;;;;4993520;28;20758;-65
2023/03/09 14:27:14;;;;;;;4.47;2.85;;;;;;;;;;4993160;28;20050;-65
2023/03/09 14:29:41;;;;;;;3.63;2.03;;;;;;;;;;4993246;28;20042;-65
2023/03/09 14:32:19;;;;;;;4.40;2.40;;;;;;;;;;4993017;28;20081;-65
2023/03/09 14:34:47;;;;;;;5.93;3.20;;;;;;;;;;4993031;28;20042;-65
2023/03/09 14:37:25;;;;;;;9.00;3.00;;;;;;;;;;4993008;28;20097;-65
2023/03/09 14:39:54;;;;;;;7.75;2.70;;;;;;;;;;4993017;28;20102;-66
2023/03/09 14:42:24;;;;;;;12.23;3.38;;;;;;;;;;4993128;28;20051;-65
2023/03/09 14:45:10;;;;;;;9.48;3.20;;;;;;;;;;4992402;28;20053;-59
2023/03/09 14:47:38;;;;;;;8.02;3.75;;;;;;;;;;4992938;28;20074;-59
2023/03/09 14:50:06;;;;;;;9.27;3.78;;;;;;;;;;4993862;28;20046;-59
2023/03/09 14:52:35;;;;;;;9.60;4.43;;;;;;;;;;5009659;28;20470;-60